METAR Data
IDs: Format: Raw Decoded Include TAF

Data at: 1435 UTC 21 May 2019

KVTI 211435Z AUTO 10014G19KT 10SM BKN015 BKN060 11/09 A3001 RMK AO2 T01050091
KVTI 211415Z AUTO 10015G20KT 10SM SCT008 BKN014 09/08 A3001 RMK AO2 T00900082
KVTI 211355Z AUTO 09017G23KT 3SM -RA SCT005 OVC012 09/08 A2999 RMK AO2 T00900082
KVTI 211335Z AUTO 10015G23KT 3SM -RA BKN007 OVC014 09/08 A3002 RMK AO2 T00900080
KVTI 211315Z AUTO 11012G21KT 1 3/4SM -RA BKN009 OVC014 09/07 A3004 RMK AO2 T00900074
KVTI 211255Z AUTO 11018G23KT 2SM -RA BKN013 OVC019 09/06 A3003 RMK AO2 T00900063
KVTI 211235Z AUTO 10017G24KT 10SM SCT027 SCT041 11/07 A3003 RMK AO2 T01050065
KVTI 211215Z AUTO 10014G18KT 10SM SCT018 SCT024 BKN041 11/07 A3004 RMK AO2 T01050072
KVTI 211155Z AUTO 10014G18KT 10SM SCT018 SCT023 SCT041 11/08 A3003 RMK AO2 T01050075 10118 20105
KVTI 211135Z AUTO 10011KT 10SM SCT016 BKN043 11/08 A3002 RMK AO2 T01050078
KVTI 211115Z AUTO 11011G16KT 10SM SCT018 OVC043 11/08 A3003 RMK AO2 T01050078
KVTI 211055Z AUTO 11012KT 10SM -DZ SCT010 SCT020 OVC043 11/08 A3003 RMK AO2 T01050080
KVTI 211035Z AUTO 11012G16KT 10SM DZ SCT010 SCT045 SCT070 11/07 A3001 RMK AO2 T01050073
KVTI 211015Z AUTO 10012KT 10SM -RA SCT070 11/07 A3002 RMK AO2 T01050070
KVTI 210955Z AUTO 11011G16KT 10SM BKN070 11/07 A3003 RMK AO2 T01050066
KVTI 210935Z AUTO 11014G17KT 10SM BKN070 11/07 A3003 RMK AO2 T01060068
KVTI 210915Z AUTO 10007KT 10SM BKN075 BKN080 11/07 A3003 RMK AO2 T01110070
KVTI 210855Z AUTO 10010G16KT 10SM SCT075 11/07 A3002 RMK AO2 T01110068
KVTI 210835Z AUTO 10009KT 10SM BKN075 12/07 A3002 RMK AO2 T01150068
KVTI 210815Z AUTO 11011G16KT 10SM SCT075 12/07 A3003 RMK AO2 T01180069
KVTI 210755Z AUTO 09007KT 10SM SCT075 11/07 A3002 RMK AO2 T01110065
KVTI 210735Z AUTO 09009KT 10SM CLR 11/07 A3003 RMK AO2 T01110065
KVTI 210655Z AUTO 09005KT 10SM SCT075 12/07 A3005 RMK AO2 T01180068
KVTI 210635Z AUTO 09007KT 10SM SCT075 12/07 A3005 RMK AO2 T01180069
KVTI 210615Z AUTO 10006KT 10SM SCT075 12/07 A3005 RMK AO2 T01180071
KVTI 210555Z AUTO 10008KT 10SM SCT085 12/07 A3005 RMK AO2 T01180072 10146 20118 401630053
KVTI 210535Z AUTO 09008KT 10SM CLR 12/07 A3005 RMK AO2 T01180071
KVTI 210515Z AUTO 08008KT 10SM CLR 12/07 A3006 RMK AO2 T01180069
KVTI 210455Z AUTO 09007KT 10SM CLR 12/07 A3008 RMK AO2 T01180066
KVTI 210435Z AUTO 11008KT 10SM CLR 12/07 A3009 RMK AO2 T01180070
KVTI 210415Z AUTO 09007KT 10SM CLR 12/07 A3008 RMK AO2 T01180069
KVTI 210355Z AUTO 10008KT 10SM CLR 12/07 A3008 RMK AO2 T01180070
KVTI 210335Z AUTO 10007KT 10SM CLR 12/07 A3010 RMK AO2 T01200067
KVTI 210315Z AUTO 11007KT 10SM CLR 13/08 A3010 RMK AO2 T01320077
KVTI 210255Z AUTO 11007KT 10SM CLR 13/08 A3011 RMK AO2 T01320075
KVTI 210235Z AUTO 12006KT 10SM CLR 13/08 A3012 RMK AO2 T01320075
KVTI 210215Z AUTO 11008KT 10SM CLR 13/07 A3012 RMK AO2 T01320072
KVTI 210155Z AUTO 11006KT 10SM CLR 13/07 A3012 RMK AO2 T01320068
KVTI 210135Z AUTO 10006KT 10SM CLR 13/07 A3011 RMK AO2 T01320069
KVTI 210115Z AUTO 09006KT 10SM CLR 13/06 A3010 RMK AO2 T01320064
KVTI 210055Z AUTO 08008KT 10SM CLR 13/06 A3010 RMK AO2 T01320056
KVTI 210035Z AUTO 07009KT 10SM CLR 14/06 A3009 RMK AO2 T01370060
KVTI 210015Z AUTO 07010KT 10SM CLR 15/06 A3009 RMK AO2 T01460061
KVTI 202355Z AUTO 07007KT 10SM CLR 15/06 A3009 RMK AO2 T01460059 10163 20146
KVTI 202335Z AUTO 08008KT 10SM SCT045 15/06 A3009 RMK AO2 T01460055
KVTI 202315Z AUTO 06006KT 10SM CLR 15/05 A3010 RMK AO2 T01460052
KVTI 202255Z AUTO 06007KT 10SM SCT048 15/04 A3011 RMK AO2 T01460041
KVTI 202235Z AUTO 09006KT 10SM SCT048 15/05 A3012 RMK AO2 T01470047
KVTI 202215Z AUTO 09005KT 10SM SCT050 16/06 A3013 RMK AO2 T01600059
KVTI 202155Z AUTO 09005KT 10SM SCT050 16/05 A3014 RMK AO2 T01570048
KVTI 202135Z AUTO 09003KT 10SM SCT047 SCT050 16/05 A3013 RMK AO2 T01600046
KVTI 202115Z AUTO 11003KT 10SM SCT048 SCT060 16/05 A3013 RMK AO2 T01570050
KVTI 202055Z AUTO 04009KT 10SM BKN048 BKN060 16/05 A3013 RMK AO2 T01600046
KVTI 202035Z AUTO 09004KT 10SM SCT048 16/05 A3013 RMK AO2 T01600045
KVTI 202015Z AUTO 05007KT 10SM SCT048 16/05 A3012 RMK AO2 T01600046
KVTI 201955Z AUTO 06009KT 360V070 10SM SCT044 16/04 A3012 RMK AO2 T01600042
KVTI 201935Z AUTO 04008KT 10SM SCT046 16/04 A3012 RMK AO2 T01590043
KVTI 201915Z AUTO 02006KT 10SM SCT046 15/04 A3012 RMK AO2 T01470037
KVTI 201855Z AUTO 06009KT 10SM SCT044 16/05 A3013 RMK AO2 T01600046
KVTI 201835Z AUTO 03008KT 10SM SCT042 16/05 A3013 RMK AO2 T01600046
KVTI 201815Z AUTO 03009G14KT 10SM SCT040 15/04 A3013 RMK AO2 T01460037
KVTI 201755Z AUTO 01008KT 320V020 10SM SCT038 15/04 A3013 RMK AO2 T01460041 10146 20061
KVTI 201735Z AUTO 01009KT 10SM BKN036 13/04 A3015 RMK AO2 T01340036
KVTI 201715Z AUTO 36008KT 10SM BKN034 BKN041 13/04 A3016 RMK AO2 T01320041
KVTI 201655Z AUTO 02009G14KT 10SM SCT034 14/04 A3015 RMK AO2 T01360041
KVTI 201635Z AUTO 35011G18KT 10SM BKN032 13/04 A3014 RMK AO2 T01320041
KVTI 201615Z AUTO 35011G17KT 10SM OVC030 13/05 A3014 RMK AO2 T01290048
KVTI 201555Z AUTO 01013G17KT 10SM OVC030 13/05 A3015 RMK AO2 T01320050
KVTI 201535Z AUTO 02011G15KT 10SM BKN026 OVC032 11/04 A3016 RMK AO2 T01050039
KVTI 201515Z AUTO 01007KT 10SM BKN026 11/05 A3017 RMK AO2 T01050046
KVTI 201455Z AUTO 36011G18KT 10SM BKN024 11/05 A3013 RMK AO2 T01050046
KVTI 201435Z AUTO 35015G18KT 10SM BKN022 11/05 A3013 RMK AO2 T01050053
KVTI 201415Z AUTO 01012G19KT 10SM BKN019 BKN024 09/04 A3014 RMK AO2 T00900042
KVTI 201355Z AUTO 36011G19KT 10SM OVC017 08/03 A3011 RMK AO2 T00750033
KVTI 201335Z AUTO 35014G21KT 10SM OVC017 07/03 A3009 RMK AO2 T00680030
KVTI 201315Z AUTO 35014G21KT 10SM OVC017 07/03 A3010 RMK AO2 T00650030
KVTI 201255Z AUTO 35012G17KT 10SM OVC017 06/03 A3010 RMK AO2 T00620029
KVTI 201235Z AUTO 35012G18KT 10SM OVC017 06/03 A3010 RMK AO2 T00610030
KVTI 201215Z AUTO 34012G18KT 10SM OVC017 06/03 A3009 RMK AO2 T00610030
KVTI 201155Z AUTO 34010G14KT 10SM OVC019 06/03 A3008 RMK AO2 T00610030 10063 20053
KVTI 201135Z AUTO 35009KT 10SM OVC019 06/02 A3008 RMK AO2 T00570023
KVTI 201115Z AUTO 34007KT 10SM OVC019 06/03 A3007 RMK AO2 T00550025
KVTI 201055Z AUTO 33007KT 10SM OVC021 06/02 A3007 RMK AO2 T00550023
KVTI 201035Z AUTO 33006KT 10SM OVC021 06/02 A3006 RMK AO2 T00550020
KVTI 201015Z AUTO 34009G16KT 10SM BKN016 OVC022 05/02 A3005 RMK AO2 T00530020
KVTI 200955Z AUTO 33009KT 10SM OVC017 06/02 A3004 RMK AO2 T00550023
KVTI 200935Z AUTO 32006KT 10SM OVC019 06/02 A3003 RMK AO2 T00550022
KVTI 200915Z AUTO 32008KT 10SM OVC019 06/02 A3003 RMK AO2 T00550021
KVTI 200855Z AUTO 32009KT 10SM OVC021 06/03 A3002 RMK AO2 T00550025
KVTI 200835Z AUTO 33009KT 10SM BKN021 06/02 A3001 RMK AO2 T00550020
KVTI 200815Z AUTO 33013G17KT 10SM OVC019 06/02 A3000 RMK AO2 T00550020
KVTI 200755Z AUTO 33010KT 10SM OVC019 06/02 A3000 RMK AO2 T00550018
KVTI 200735Z AUTO 33012G18KT 10SM OVC019 06/02 A3000 RMK AO2 T00550020
KVTI 200715Z AUTO 32012G18KT 10SM OVC019 06/02 A2999 RMK AO2 T00550020
KVTI 200655Z AUTO 33011G15KT 10SM OVC019 06/02 A3000 RMK AO2 T00550021
KVTI 200635Z AUTO 32015G19KT 10SM OVC017 06/03 A2999 RMK AO2 T00610034
KVTI 200615Z AUTO 33013G18KT 10SM OVC017 06/03 A2998 RMK AO2 T00610032
KVTI 200555Z AUTO 33014G19KT 10SM BKN017 OVC024 07/04 A2998 RMK AO2 T00650036 10118 20065 401810065
KVTI 200535Z AUTO 30010G15KT 10SM SCT018 OVC025 07/04 A2997 RMK AO2 T00680037
KVTI 200515Z AUTO 32009G16KT 10SM OVC018 07/04 A2997 RMK AO2 T00700040
KVTI 200455Z AUTO 32011G20KT 10SM OVC014 07/05 A2996 RMK AO2 T00730045
KVTI 200435Z AUTO 33011G15KT 10SM BKN014 OVC022 08/05 A2995 RMK AO2 T00760051
KVTI 200415Z AUTO 31009KT 10SM BKN014 BKN020 BKN025 09/07 A2994 RMK AO2 T00900073
KVTI 200355Z AUTO 32007KT 10SM SCT005 BKN014 OVC030 09/08 A2992 RMK AO2 T00900080
KVTI 200335Z AUTO 32010G14KT 10SM SCT010 OVC014 09/08 A2992 RMK AO2 T00900082
KVTI 200315Z AUTO 32008KT 3SM RA BKN010 OVC014 11/09 A2990 RMK AO2 T01050093
KVTI 200255Z AUTO 29008G15KT 7SM SCT006 SCT011 BKN020 11/08 A2989 RMK AO2 T01050078